Time;durP1;ratioP1;P1;durP2;ratioP2;P2;SDS_P1;SDS_P2;PMS_P1;PMS_P2;Temp;Humidity;BMP_temperature;BMP_pressure;BME280_temperature;BME280_humidity;BME280_pressure;Samples;Min_cycle;Max_cycle;Signal;HPM_P1;HPM_P2
2023/01/29 00:00:42;;;;;;;;;;;;;;;;;;5085527;28;20366;-59
2023/01/29 00:03:08;;;;;;;;;;;;;;;;;;5080314;28;19916;-61
2023/01/29 00:05:34;;;;;;;;;;;;;;;;;;5089615;28;19925;-61
2023/01/29 00:08:00;;;;;;;;;;;;;;;;;;5092986;28;19918;-61
2023/01/29 00:10:26;;;;;;;;;;;;;;;;;;5089538;28;19916;-59
2023/01/29 00:12:51;;;;;;;;;;;;;;;;;;5093921;28;19919;-61
2023/01/29 00:15:17;;;;;;;;;;;;;;;;;;5087431;28;19935;-63
2023/01/29 00:17:43;;;;;;;;;;;;;;;;;;5091722;28;20010;-62
2023/01/29 00:20:09;;;;;;;;;;;;;;;;;;5086430;28;20286;-62
2023/01/29 00:22:35;;;;;;;;;;;;;;;;;;5093455;28;19922;-61
2023/01/29 00:25:01;;;;;;;;;;;;;;;;;;5089331;28;19939;-60
2023/01/29 00:27:27;;;;;;;;;;;;;;;;;;5089737;28;19919;-60
2023/01/29 00:30:10;;;;;;;;;;;;;;;;;;5088209;28;20633;-58
2023/01/29 00:32:36;;;;;;;;;;;;;;;;;;5083905;28;19973;-62
2023/01/29 00:35:02;;;;;;;;;;;;;;;;;;5088826;28;19912;-62
2023/01/29 00:37:28;;;;;;;;;;;;;;;;;;5083132;28;19916;-63
2023/01/29 00:39:54;;;;;;;;;;;;;;;;;;5088044;28;19912;-60
2023/01/29 00:45:04;;;;;;;;;;;;;;;;;;5081749;28;19981;-59
2023/01/29 00:47:32;;;;;;;;;;;;;;;;;;5064569;28;20377;-61
2023/01/29 00:49:58;;;;;;;;;;;;;;;;;;5064501;28;19916;-61
2023/01/29 00:52:23;;;;;;;;;;;-2.80;99.90;;;;;;5069825;28;19925;-61
2023/01/29 00:54:49;;;;;;;;;;;;;;;;;;5064968;28;19909;-59
2023/01/29 00:57:15;;;;;;;;;;;;;;;;;;5068705;28;19920;-61
2023/01/29 00:59:41;;;;;;;;;;;;;;;;;;5063805;28;19952;-61
2023/01/29 01:04:51;;;;;;;;;;;;;;;;;;5071928;28;20013;-61
2023/01/29 01:07:17;;;;;;;;;;;;;;;;;;5074157;28;20386;-60
2023/01/29 01:12:27;;;;;;;;;;;;;;;;;;5074991;28;19971;-60
2023/01/29 01:14:53;;;;;;;;;;;;;;;;;;5068244;28;20366;-60
2023/01/29 01:17:19;;;;;;;;;;;;;;;;;;5066944;28;19916;-61
2023/01/29 01:19:45;;;;;;;;;;;;;;;;;;5070625;28;19919;-60
2023/01/29 01:22:11;;;;;;;;;;;;;;;;;;5071757;28;19979;-63
2023/01/29 01:24:37;;;;;;;;;;;;;;;;;;5065671;28;19936;-62
2023/01/29 01:27:03;;;;;;;;;;;;;;;;;;5069348;28;20260;-61
2023/01/29 01:29:28;;;;;;;;;;;;;;;;;;5070613;28;20437;-62
2023/01/29 01:31:54;;;;;;;;;;;;;;;;;;5068487;28;19913;-61
2023/01/29 01:34:21;;;;;;;;;;;;;;;;;;5053101;28;19908;-61
2023/01/29 01:36:46;;;;;;;;;;;;;;;;;;5067210;28;20396;-59
2023/01/29 01:39:12;;;;;;;;;;;;;;;;;;5068993;28;19912;-62
2023/01/29 01:41:38;;;;;;;;;;;;;;;;;;5069341;28;19920;-62
2023/01/29 01:44:05;;;;;;;;;;;;;;;;;;5055748;28;19918;-62
2023/01/29 01:46:30;;;;;;;;;;;;;;;;;;5079758;28;19916;-61
2023/01/29 01:48:56;;;;;;;;;;;;;;;;;;5092887;28;19941;-61
2023/01/29 01:51:22;;;;;;;;;;;;;;;;;;5087081;28;19927;-61
2023/01/29 01:53:48;;;;;;;;;;;;;;;;;;5090819;28;19942;-62
2023/01/29 01:56:14;;;;;;;;;;;;;;;;;;5091131;28;19920;-62
2023/01/29 01:58:40;;;;;;;;;;;;;;;;;;5094336;28;19912;-61
2023/01/29 02:01:06;;;;;;;;;;;;;;;;;;5094295;28;20043;-61
2023/01/29 02:11:46;;;;;;;;;;;;;;;;;;5086952;28;19948;-60
2023/01/29 02:14:11;;;;;;;;;;;;;;;;;;5091877;28;19920;-60
2023/01/29 02:16:37;;;;;;;;;;;;;;;;;;5089634;28;19912;-62
2023/01/29 02:19:03;;;;;;;;;;;;;;;;;;5087753;28;20304;-61
2023/01/29 02:21:29;;;;;;;;;;;;;;;;;;5088494;28;19916;-62
2023/01/29 02:23:55;;;;;;;;;;;;;;;;;;5091842;28;19916;-62
2023/01/29 02:26:21;;;;;;;;;;;;;;;;;;5089551;28;20397;-62
2023/01/29 02:28:47;;;;;;;;;;;;;;;;;;5098258;28;20105;-60
2023/01/29 02:31:13;;;;;;;;;;;;;;;;;;5091469;28;19964;-61
2023/01/29 02:33:39;;;;;;;;;;;;;;;;;;5096324;28;19911;-63
2023/01/29 02:36:05;;;;;;;;;;;;;;;;;;5090488;28;19912;-61
2023/01/29 02:38:31;;;;;;;;;;;;;;;;;;5091923;28;19919;-60
2023/01/29 02:40:57;;;;;;;;;;;;;;;;;;5092294;28;19912;-61
2023/01/29 02:43:23;;;;;;;;;;;;;;;;;;5086820;28;19993;-60
2023/01/29 02:45:49;;;;;;;;;;;;;;;;;;5080204;28;19940;-62
2023/01/29 02:48:15;;;;;;;;;;;;;;;;;;5061955;28;19921;-62
2023/01/29 02:50:41;;;;;;;;;;;;;;;;;;5067845;28;19923;-62
2023/01/29 02:53:07;;;;;;;;;;;;;;;;;;5067081;28;20902;-61
2023/01/29 02:55:33;;;;;;;;;;;;;;;;;;5069488;28;19959;-61
2023/01/29 02:57:59;;;;;;;;;;;;;;;;;;5062159;28;19924;-60
2023/01/29 03:00:24;;;;;;;;;;;;;;;;;;5068084;28;20566;-61
2023/01/29 03:02:50;;;;;;;;;;;;;;;;;;5061857;28;19920;-61
2023/01/29 03:05:16;;;;;;;;;;;;;;;;;;5060623;28;19913;-59
2023/01/29 03:07:45;;;;;;;;;;;;;;;;;;5069507;28;19916;-62
2023/01/29 03:10:11;;;;;;;;;;;;;;;;;;5070264;28;19924;-62
2023/01/29 03:12:37;;;;;;;;;;;;;;;;;;5072512;28;20023;-62
2023/01/29 03:15:11;;;;;;;;;;;;;;;;;;5076512;28;19958;-62
2023/01/29 03:17:37;;;;;;;;;;;;;;;;;;5077841;28;20002;-61
2023/01/29 03:20:05;;;;;;;;;;;;;;;;;;5064150;28;20010;-59
2023/01/29 03:22:31;;;;;;;;;;;;;;;;;;5071533;28;20282;-61
2023/01/29 03:33:11;;;;;;;;;;;;;;;;;;5073590;28;20043;-60
2023/01/29 03:35:38;;;;;;;;;;;;;;;;;;5054175;28;20423;-61
2023/01/29 03:38:04;;;;;;;;;;;;;;;;;;5071137;28;19920;-61
2023/01/29 03:40:30;;;;;;;;;;;;;;;;;;5066452;28;19927;-61
2023/01/29 03:42:55;;;;;;;;;;;;;;;;;;5066917;28;19977;-61
2023/01/29 03:45:22;;;;;;;;;;;;;;;;;;5063805;28;19913;-60
2023/01/29 03:47:47;;;;;;;;;;;;;;;;;;5088993;28;19915;-62
2023/01/29 03:50:13;;;;;;;;;;;;;;;;;;5091718;28;19961;-62
2023/01/29 03:52:39;;;;;;;;;;;;;;;;;;5092021;28;20050;-61
2023/01/29 03:55:05;;;;;;;;;;;;;;;;;;5095146;28;19920;-61
2023/01/29 03:57:31;;;;;;;;;;;;;;;;;;5089316;28;19919;-62
2023/01/29 03:59:57;;;;;;;;;;;;;;;;;;5088758;28;20378;-60
2023/01/29 04:02:26;;;;;;;;;;;;;;;;;;5083212;28;19916;-62
2023/01/29 04:04:52;;;;;;;;;;;;;;;;;;5087572;28;19916;-62
2023/01/29 04:07:22;;;;;;;;;;;;;;;;;;5089119;28;19936;-62
2023/01/29 04:09:48;;;;;;;;;;;;;;;;;;5086797;28;19916;-61
2023/01/29 04:12:14;;;;;;;;;;;;;;;;;;5090302;28;19923;-61
2023/01/29 04:14:40;;;;;;;;;;;;;;;;;;5090873;28;19926;-61
2023/01/29 04:17:06;;;;;;;;;;;;;;;;;;5090357;28;19995;-65
2023/01/29 04:19:31;;;;;;;;;;;;;;;;;;5083417;28;20446;-60
2023/01/29 04:21:57;;;;;;;;;;;;;;;;;;5088508;28;19916;-61
2023/01/29 04:24:23;;;;;;;;;;;;;;;;;;5082942;28;19965;-62
2023/01/29 04:26:49;;;;;;;;;;;;;;;;;;5090333;28;20370;-61
2023/01/29 04:29:15;;;;;;;;;;;;;;;;;;5073577;28;19923;-61
2023/01/29 04:31:41;;;;;;;;;;;;;;;;;;5083889;28;19913;-62
2023/01/29 04:34:07;;;;;;;;;;;;;;;;;;5082481;28;19918;-61
2023/01/29 04:36:34;;;;;;;;;;;;;;;;;;5088427;28;19920;-62
2023/01/29 04:38:59;;;;;;;;;;;;;;;;;;5087120;28;20006;-61
2023/01/29 04:41:25;;;;;;;;;;;;;;;;;;5088844;28;19998;-62
2023/01/29 04:43:51;;;;;;;;;;;;;;;;;;5086399;28;21306;-61
2023/01/29 04:48:43;;;;;;;;;;;;;;;;;;5086174;22;19928;-61
2023/01/29 04:51:09;;;;;;;;;;;;;;;;;;5086417;28;19912;-62
2023/01/29 04:53:35;;;;;;;;;;;;;;;;;;5087370;28;19919;-62
2023/01/29 04:56:00;;;;;;;;;;;;;;;;;;5088072;28;19916;-63
2023/01/29 04:58:26;;;;;;;;;;;;;;;;;;5071715;28;19921;-62
2023/01/29 05:00:52;;;;;;;;;;;;;;;;;;5067334;28;20492;-62
2023/01/29 05:03:18;;;;;;;;;;;;;;;;;;5066161;28;19916;-63
2023/01/29 05:05:44;;;;;;;;;;;;;;;;;;5065978;28;19920;-62
2023/01/29 05:08:10;;;;;;;;;;;;;;;;;;5067341;28;20007;-62
2023/01/29 05:10:37;;;;;;;;;;;;;;;;;;5067748;28;20311;-64
2023/01/29 05:13:02;;;;;;;;;;;;;;;;;;5066963;28;19913;-63
2023/01/29 05:15:29;;;;;;;;;;;;;;;;;;5065657;28;19917;-62
2023/01/29 05:18:00;;;;;;;;;;;;;;;;;;5067949;28;20002;-62
2023/01/29 05:20:26;;;;;;;;;;;;;;;;;;5066464;28;19913;-62
2023/01/29 05:22:52;;;;;;;;;;;;;;;;;;5067332;28;19921;-63
2023/01/29 05:25:18;;;;;;;;;;;;;;;;;;5072443;28;19995;-62
2023/01/29 05:30:28;;;;;;;;;;;;;;;;;;5075449;28;20405;-62
2023/01/29 05:32:54;;;;;;;;;;;;;;;;;;5066767;28;19956;-62
2023/01/29 05:35:20;;;;;;;;;;;;;;;;;;5063100;28;19927;-62
2023/01/29 05:37:46;;;;;;;;;;;-2.90;99.90;;;;;;5074595;28;19913;-62
2023/01/29 05:40:11;;;;;;;;;;;;;;;;;;5064444;28;19928;-62
2023/01/29 05:42:37;;;;;;;;;;;;;;;;;;5073038;28;20390;-62
2023/01/29 05:45:03;;;;;;;;;;;;;;;;;;5063261;28;19921;-62
2023/01/29 05:47:29;;;;;;;;;;;;;;;;;;5067739;28;20344;-62
2023/01/29 05:49:55;;;;;;;;;;;;;;;;;;5065229;28;19960;-63
2023/01/29 05:52:21;;;;;;;;;;;;;;;;;;5066122;28;19924;-63
2023/01/29 05:54:47;;;;;;;;;;;;;;;;;;5069201;28;20011;-61
2023/01/29 05:57:13;;;;;;;;;;;;;;;;;;5065743;28;19912;-61
2023/01/29 05:59:39;;;;;;;;;;;;;;;;;;5076121;28;19919;-62
2023/01/29 06:02:05;;;;;;;;;;;;;;;;;;5061213;28;19966;-61
2023/01/29 06:04:31;;;;;;;;;;;;;;;;;;5065796;28;20405;-64
2023/01/29 06:06:57;;;;;;;;;;;;;;;;;;5071214;28;19912;-63
2023/01/29 06:09:23;;;;;;;;;;;;;;;;;;5070747;28;20373;-63
2023/01/29 06:11:49;;;;;;;;;;;;;;;;;;5070025;28;19916;-62
2023/01/29 06:14:15;;;;;;;;;;;;;;;;;;5061730;28;19912;-63
2023/01/29 06:16:40;;;;;;;;;;;;;;;;;;5065413;28;20417;-63
2023/01/29 06:19:06;;;;;;;;;;;;;;;;;;5070227;28;19913;-63
2023/01/29 06:21:32;;;;;;;;;;;;;;;;;;5068910;28;19962;-63
2023/01/29 06:23:58;;;;;;;;;;;;;;;;;;5062116;28;20000;-64
2023/01/29 06:26:24;;;;;;;;;;;;;;;;;;5081035;28;19916;-64
2023/01/29 06:28:50;;;;;;;;;;;;;;;;;;5065847;28;19917;-64
2023/01/29 06:31:15;;;;;;;;;;;;;;;;;;5067648;28;19912;-64
2023/01/29 06:33:41;;;;;;;;;;;;;;;;;;5076284;28;20333;-64
2023/01/29 06:36:07;;;;;;;;;;;;;;;;;;5069255;28;19912;-63
2023/01/29 06:38:33;;;;;;;;;;;;;;;;;;5071282;28;20366;-64
2023/01/29 06:40:59;;;;;;;;;;;;;;;;;;5073908;28;19912;-63
2023/01/29 06:43:25;;;;;;;;;;;;;;;;;;5071110;28;20450;-64
2023/01/29 06:45:51;;;;;;;;;;;;;;;;;;5071965;28;19916;-65
2023/01/29 06:48:17;;;;;;;;;;;;;;;;;;5071149;28;19928;-62
2023/01/29 06:50:42;;;;;;;;;;;;;;;;;;5074854;28;20342;-61
2023/01/29 06:53:08;;;;;;;;;;;;;;;;;;5072259;28;19970;-62
2023/01/29 06:55:34;;;;;;;;;;;;;;;;;;5073382;28;20378;-64
2023/01/29 06:58:00;;;;;;;;;;;;;;;;;;5074898;28;19987;-65
2023/01/29 07:00:26;;;;;;;;;;;;;;;;;;5072614;28;19919;-62
2023/01/29 07:02:52;;;;;;;;;;;;;;;;;;5073023;28;19914;-62
2023/01/29 07:05:18;;;;;;;;;;;;;;;;;;5074959;28;20003;-63
2023/01/29 07:07:43;;;;;;;;;;;;;;;;;;5073861;28;19916;-62
2023/01/29 07:10:09;;;;;;;;;;;;;;;;;;5076416;28;20389;-61
2023/01/29 07:12:35;;;;;;;;;;;;;;;;;;5071300;28;19927;-61
2023/01/29 07:15:01;;;;;;;;;;;;;;;;;;5073344;28;20024;-61
2023/01/29 07:17:27;;;;;;;;;;;;;;;;;;5072837;28;19981;-62
2023/01/29 07:19:53;;;;;;;;;;;;;;;;;;5070536;28;19908;-61
2023/01/29 07:22:18;;;;;;;;;;;;;;;;;;5070885;28;19913;-63
2023/01/29 07:24:44;;;;;;;;;;;;;;;;;;5073529;28;19912;-64
2023/01/29 07:27:10;;;;;;;;;;;;;;;;;;5067722;28;20290;-61
2023/01/29 07:29:36;;;;;;;;;;;;;;;;;;5074063;28;19991;-63
2023/01/29 07:32:02;;;;;;;;;;;;;;;;;;5067830;28;19912;-64
2023/01/29 07:34:28;;;;;;;;;;;;;;;;;;5068647;28;19948;-62
2023/01/29 07:36:55;;;;;;;;;;;;;;;;;;5067929;28;20282;-65
2023/01/29 07:39:21;;;;;;;;;;;;;;;;;;5074417;28;19917;-62
2023/01/29 07:41:47;;;;;;;;;;;;;;;;;;5070956;28;19918;-65
2023/01/29 07:44:13;;;;;;;;;;;;;;;;;;5068749;28;20279;-63
2023/01/29 07:46:39;;;;;;;;;;;;;;;;;;5068341;28;19917;-64
2023/01/29 07:49:04;;;;;;;;;;;;;;;;;;5071839;28;19917;-62
2023/01/29 07:51:30;;;;;;;;;;;;;;;;;;5068921;28;19954;-64
2023/01/29 07:53:56;;;;;;;;;;;;;;;;;;5079214;28;19924;-60
2023/01/29 07:56:22;;;;;;;;;;;;;;;;;;5070025;28;19920;-62
2023/01/29 07:58:48;;;;;;;;;;;;;;;;;;5070947;28;20374;-64
2023/01/29 08:01:14;;;;;;;;;;;;;;;;;;5067949;28;19916;-64
2023/01/29 08:03:40;;;;;;;;;;;;;;;;;;5072495;28;19913;-62
2023/01/29 08:06:05;;;;;;;;;;;;;;;;;;5067384;28;19912;-62
2023/01/29 08:08:31;;;;;;;;;;;;;;;;;;5072407;28;19964;-63
2023/01/29 08:10:57;;;;;;;;;;;;;;;;;;5066426;28;19939;-62
2023/01/29 08:13:23;;;;;;;;;;;;;;;;;;5071879;28;19920;-60
2023/01/29 08:15:49;;;;;;;;;;;;;;;;;;5065524;28;19915;-61
2023/01/29 08:18:15;;;;;;;;;;;;;;;;;;5071219;28;20046;-61
2023/01/29 08:20:41;;;;;;;;;;;;;;;;;;5073109;28;19922;-61
2023/01/29 08:23:06;;;;;;;;;;;;;;;;;;5071343;28;20003;-63
2023/01/29 08:25:32;;;;;;;;;;;;;;;;;;5072253;28;19920;-62
2023/01/29 08:27:58;;;;;;;;;;;;;;;;;;5064019;28;19912;-63
2023/01/29 08:30:24;;;;;;;;;;;;;;;;;;5065723;28;19947;-61
2023/01/29 08:32:50;;;;;;;;;;;;;;;;;;5066993;28;19919;-62
2023/01/29 08:35:16;;;;;;;;;;;;;;;;;;5046377;28;19970;-63
2023/01/29 08:37:42;;;;;;;;;;;;;;;;;;5073556;28;19919;-61
2023/01/29 08:40:09;;;;;;;;;;;;;;;;;;5077806;28;20396;-62
2023/01/29 08:42:35;;;;;;;;;;;;;;;;;;5070993;28;19913;-61
2023/01/29 08:45:01;;;;;;;;;;;;;;;;;;5064979;28;20495;-59
2023/01/29 08:47:27;;;;;;;;;;;;;;;;;;5065174;28;19917;-63
2023/01/29 08:49:53;;;;;;;;;;;;;;;;;;5067210;28;20284;-61
2023/01/29 08:52:18;;;;;;;;;;;;;;;;;;5060917;28;19912;-61
2023/01/29 08:54:44;;;;;;;;;;;;;;;;;;5066159;28;19912;-61
2023/01/29 08:57:10;;;;;;;;;;;;;;;;;;5070787;28;19912;-62
2023/01/29 08:59:37;;;;;;;;;;;;;;;;;;5064820;28;20392;-62
2023/01/29 09:02:02;;;;;;;;;;;;;;;;;;5049582;28;19912;-62
2023/01/29 09:04:28;;;;;;;;;;;;;;;;;;5067304;28;19919;-61
2023/01/29 09:06:54;;;;;;;;;;;;;;;;;;5066403;28;19970;-60
2023/01/29 09:09:20;;;;;;;;;;;;;;;;;;5069354;28;19917;-60
2023/01/29 09:11:46;;;;;;;;;;;;;;;;;;5067308;28;20528;-61
2023/01/29 09:14:13;;;;;;;;;;;;;;;;;;5064379;28;19917;-62
2023/01/29 09:16:39;;;;;;;;;;;;;;;;;;5069810;28;19920;-61
2023/01/29 09:19:05;;;;;;;;;;;;;;;;;;5072266;28;19920;-60
2023/01/29 09:21:30;;;;;;;;;;;;;;;;;;5067915;28;20591;-62
2023/01/29 09:23:56;;;;;;;;;;;;;;;;;;5067274;28;19935;-61
2023/01/29 09:26:22;;;;;;;;;;;;;;;;;;5070576;28;19919;-61
2023/01/29 09:28:48;;;;;;;;;;;;;;;;;;5070660;28;19969;-60
2023/01/29 09:31:14;;;;;;;;;;;;;;;;;;5059267;28;19928;-61
2023/01/29 09:33:40;;;;;;;;;;;;;;;;;;5067583;28;20425;-58
2023/01/29 09:36:06;;;;;;;;;;;;;;;;;;5070290;28;19928;-61
2023/01/29 09:38:31;;;;;;;;;;;;;;;;;;5072831;28;20263;-61
2023/01/29 09:40:57;;;;;;;;;;;;;;;;;;5071885;28;19912;-61
2023/01/29 09:43:23;;;;;;;;;;;;;;;;;;5069599;28;20371;-61
2023/01/29 09:45:49;;;;;;;;;;;;;;;;;;5073026;28;19913;-60
2023/01/29 09:48:15;;;;;;;;;;;;;;;;;;5065119;28;19916;-60
2023/01/29 09:50:41;;;;;;;;;;;;;;;;;;5064164;28;19925;-60
2023/01/29 09:53:08;;;;;;;;;;;;;;;;;;5059745;28;20283;-59
2023/01/29 09:55:34;;;;;;;;;;;;;;;;;;5059839;28;19920;-62
2023/01/29 09:58:01;;;;;;;;;;;;;;;;;;5061719;28;19912;-62
2023/01/29 10:00:35;;;;;;;;;;;-4.00;99.90;;;;;;5066135;28;19966;-61
2023/01/29 10:03:01;;;;;;;;;;;;;;;;;;5070644;28;21775;-61
2023/01/29 10:05:27;;;;;;;;;;;;;;;;;;5061209;28;19974;-60
2023/01/29 10:07:55;;;;;;;;;;;;;;;;;;5065626;28;19912;-61
2023/01/29 10:10:21;;;;;;;;;;;;;;;;;;5071704;28;19964;-60
2023/01/29 10:12:46;;;;;;;;;;;;;;;;;;5070823;28;21338;-59
2023/01/29 10:15:12;;;;;;;;;;;;;;;;;;5069719;28;19913;-62
2023/01/29 10:17:44;;;;;;;;;;;-0.20;99.90;;;;;;5074494;28;20433;-63
2023/01/29 10:20:12;;;;;;;;;;;0.30;99.90;;;;;;5076612;28;19912;-62
2023/01/29 10:22:56;;;;;;;;;;;0.40;99.90;;;;;;5075949;28;19912;-62
2023/01/29 10:25:22;;;;;;;;;;;0.40;99.90;;;;;;5065047;28;20087;-62
2023/01/29 10:27:49;;;;;;;;;;;0.40;99.90;;;;;;5067686;28;20370;-60
2023/01/29 10:30:20;;;;;;;;;;;0.60;99.90;;;;;;5071196;28;19917;-61
2023/01/29 10:32:47;;;;;;;;;;;0.80;99.90;;;;;;5062539;28;19920;-62
2023/01/29 10:35:19;;;;;;;;;;;0.70;99.90;;;;;;5040309;28;19936;-61
2023/01/29 10:37:44;;;;;;;;;;;0.80;99.90;;;;;;5074239;28;20011;-61
2023/01/29 10:40:18;;;;;;;;;;;1.00;99.90;;;;;;5062669;28;20341;-60
2023/01/29 10:42:59;;;;;;;;;;;1.00;99.90;;;;;;5072102;28;19912;-60
2023/01/29 10:45:36;;;;;;;;;;;1.10;99.90;;;;;;5067002;28;19936;-61
2023/01/29 10:48:07;;;;;;;;;;;1.10;99.90;;;;;;5083047;22;19932;-59
2023/01/29 10:50:39;;;;;;;;;;;1.10;99.90;;;;;;5061097;28;20019;-57
2023/01/29 10:53:12;;;;;;;;;;;1.20;99.90;;;;;;5063876;28;20031;-59
2023/01/29 10:55:37;;;;;;;;;;;1.20;99.90;;;;;;5060808;28;20505;-60
2023/01/29 10:58:14;;;;;;;;;;;1.20;99.90;;;;;;5066205;28;20133;-59
2023/01/29 11:00:40;;;;;;;;;;;1.20;99.90;;;;;;5062659;28;19935;-60
2023/01/29 11:03:14;;;;;;;;;;;1.10;99.90;;;;;;5066158;28;19928;-62
2023/01/29 11:05:43;;;;;;;;;;;1.10;99.90;;;;;;5064948;28;19986;-59
2023/01/29 11:08:16;;;;;;;;;;;1.10;99.90;;;;;;5067462;28;19979;-58
2023/01/29 11:10:47;;;;;;;;;;;1.00;99.90;;;;;;5062036;28;20020;-59
2023/01/29 11:13:14;;;;;;;;;;;1.10;99.90;;;;;;5064530;28;19917;-60
2023/01/29 11:15:39;;;;;;;;;;;1.20;99.90;;;;;;5063427;28;19917;-59
2023/01/29 11:18:12;;;;;;;;;;;1.10;99.90;;;;;;5068937;28;19923;-60
2023/01/29 11:20:38;;;;;;;;;;;1.10;99.90;;;;;;5066195;28;19928;-58
2023/01/29 11:23:03;;;;;;;;;;;1.20;99.90;;;;;;5067339;28;19916;-58
2023/01/29 11:25:31;;;;;;;;;;;1.30;99.90;;;;;;5072484;28;19912;-58
2023/01/29 11:28:00;;;;;;;;;;;1.40;99.90;;;;;;5065409;28;19917;-59
2023/01/29 11:30:29;;;;;;;;;;;1.30;99.90;;;;;;5062920;28;19951;-58
2023/01/29 11:33:13;;;;;;;;;;;1.30;99.90;;;;;;5066158;28;19916;-59
2023/01/29 11:35:38;;;;;;;;;;;1.40;99.90;;;;;;5069641;28;19947;-59
2023/01/29 11:38:12;;;;;;;;;;;1.50;99.90;;;;;;5062237;28;19955;-59
2023/01/29 11:40:39;;;;;;;;;;;1.60;99.90;;;;;;5068632;28;19916;-58
2023/01/29 11:43:18;;;;;;;;;;;1.70;99.90;;;;;;5071109;28;19912;-60
2023/01/29 11:45:44;;;;;;;;;;;1.60;99.90;;;;;;5066774;28;19928;-59
2023/01/29 11:48:14;;;;;;;;;;;1.60;99.90;;;;;;5065808;28;19939;-59
2023/01/29 11:50:40;;;;;;;;;;;1.60;99.90;;;;;;5066763;28;19913;-61
2023/01/29 11:53:05;;;;;;;;;;;1.70;99.90;;;;;;5066525;28;19913;-60
2023/01/29 11:55:33;;;;;;;;;;;1.90;99.90;;;;;;5047831;28;19974;-61
2023/01/29 11:58:18;;;;;;;;;;;1.90;99.90;;;;;;5069577;28;19968;-58
2023/01/29 12:00:48;;;;;;;;;;;1.90;99.90;;;;;;5065046;28;19947;-59
2023/01/29 12:03:13;;;;;;;;;;;1.90;99.90;;;;;;5060121;28;19952;-60
2023/01/29 12:05:39;;;;;;;;;;;1.90;99.90;;;;;;5061718;28;19963;-59
2023/01/29 12:08:14;;;;;;;;;;;2.00;99.90;;;;;;5068575;28;20020;-60
2023/01/29 12:10:40;;;;;;;;;;;1.90;99.90;;;;;;5066018;28;19974;-60
2023/01/29 12:13:26;;;;;;;;;;;2.00;99.90;;;;;;5064783;28;19923;-58
2023/01/29 12:16:12;;;;;;;;;;;2.00;99.90;;;;;;5061582;28;20493;-58
2023/01/29 12:18:40;;;;;;;;;;;2.10;99.90;;;;;;5054508;28;20409;-62
2023/01/29 12:21:29;;;;;;;;;;;2.20;99.90;;;;;;5067150;28;19967;-60
2023/01/29 12:23:59;;;;;;;;;;;2.30;99.90;;;;;;5050784;28;19917;-59
2023/01/29 12:26:34;;;;;;;;;;;2.20;99.90;;;;;;5066336;28;19922;-60
2023/01/29 12:29:18;;;;;;;;;;;2.20;99.90;;;;;;5065313;28;19943;-59
2023/01/29 12:32:01;;;;;;;;;;;2.20;99.90;;;;;;5060786;28;19920;-59
2023/01/29 12:34:44;;;;;;;;;;;2.30;99.90;;;;;;5056211;28;19919;-60
2023/01/29 12:37:12;;;;;;;;;;;2.30;99.90;;;;;;5065118;28;19928;-59
2023/01/29 12:39:38;;;;;;;;;;;2.40;99.90;;;;;;5071727;28;19912;-59
2023/01/29 12:42:12;;;;;;;;;;;2.30;99.90;;;;;;5066293;28;19917;-58
2023/01/29 12:44:56;;;;;;;;;;;2.40;99.90;;;;;;5066239;28;19920;-60
2023/01/29 12:47:24;;;;;;;;;;;2.50;99.90;;;;;;5067600;28;19912;-59
2023/01/29 12:49:53;;;;;;;;;;;2.50;99.90;;;;;;5060707;28;19971;-59
2023/01/29 12:52:33;;;;;;;;;;;2.40;99.90;;;;;;5073691;28;19920;-60
2023/01/29 12:55:05;;;;;;;;;;;2.40;99.90;;;;;;5064980;28;19912;-60
2023/01/29 12:57:38;;;;;;;;;;;2.30;99.90;;;;;;5071864;28;19912;-60
2023/01/29 13:00:07;;;;;;;;;;;2.50;99.90;;;;;;5062000;28;19958;-59
2023/01/29 13:02:44;;;;;;;;;;;2.80;99.90;;;;;;5062569;28;20321;-60
2023/01/29 13:05:13;;;;;;;;;;;2.90;99.90;;;;;;5054360;28;20328;-60
2023/01/29 13:07:40;;;;;;;;;;;3.20;99.90;;;;;;5078725;28;19912;-60
2023/01/29 13:10:10;;;;;;;;;;;3.30;99.90;;;;;;5067664;28;19939;-60
2023/01/29 13:12:37;;;;;;;;;;;3.30;99.90;;;;;;5069208;28;19938;-60
2023/01/29 13:15:14;;;;;;;;;;;3.30;99.90;;;;;;5064107;28;20342;-59
2023/01/29 13:17:45;;;;;;;;;;;3.40;99.90;;;;;;5061597;28;19924;-59
2023/01/29 13:20:18;;;;;;;;;;;3.70;99.90;;;;;;5065125;28;19912;-60
2023/01/29 13:22:45;;;;;;;;;;;3.70;99.90;;;;;;5068072;28;19916;-60
2023/01/29 13:25:13;;;;;;;;;;;3.50;99.90;;;;;;5074076;28;20366;-59
2023/01/29 13:27:39;;;;;;;;;;;3.50;99.90;;;;;;5067595;28;20027;-59
2023/01/29 13:30:04;;;;;;;;;;;3.60;99.90;;;;;;5062425;28;20027;-59
2023/01/29 13:32:31;;;;;;;;;;;3.70;99.90;;;;;;5065043;28;19913;-59
2023/01/29 13:35:01;;;;;;;;;;;3.70;99.90;;;;;;5070290;28;19913;-60
2023/01/29 13:37:31;;;;;;;;;;;3.60;99.90;;;;;;5071036;28;19920;-59
2023/01/29 13:39:58;;;;;;;;;;;3.70;99.90;;;;;;5069923;28;19956;-60
2023/01/29 13:42:44;;;;;;;;;;;3.80;99.90;;;;;;5060577;28;19924;-59
2023/01/29 13:45:19;;;;;;;;;;;3.70;99.90;;;;;;5069298;28;20216;-60
2023/01/29 13:47:45;;;;;;;;;;;3.60;99.90;;;;;;5047083;28;20367;-59
2023/01/29 13:50:19;;;;;;;;;;;3.50;99.90;;;;;;5065396;28;19962;-59
2023/01/29 13:52:51;;;;;;;;;;;3.50;99.90;;;;;;5067019;28;20021;-60
2023/01/29 13:55:17;;;;;;;;;;;3.60;99.90;;;;;;5067055;28;19920;-59
2023/01/29 13:57:42;;;;;;;;;;;3.70;99.90;;;;;;5076302;28;19954;-60
2023/01/29 14:00:20;;;;;;;;;;;3.70;99.90;;;;;;5066873;28;19960;-59
2023/01/29 14:02:46;;;;;;;;;;;3.70;99.90;;;;;;5061712;28;19912;-58
2023/01/29 14:05:29;;;;;;;;;;;3.50;99.90;;;;;;5069214;28;20107;-60
2023/01/29 14:07:58;;;;;;;;;;;3.60;99.90;;;;;;5064319;28;19919;-59
2023/01/29 14:10:24;;;;;;;;;;;3.60;99.90;;;;;;5069861;28;19932;-59
2023/01/29 14:12:51;;;;;;;;;;;3.50;99.90;;;;;;5066232;28;19971;-59
2023/01/29 14:15:19;;;;;;;;;;;3.60;99.90;;;;;;5068441;28;19960;-59
2023/01/29 14:17:58;;;;;;;;;;;3.60;99.90;;;;;;5070214;28;19912;-59
2023/01/29 14:20:38;;;;;;;;;;;3.60;99.90;;;;;;5079774;28;19913;-59
2023/01/29 14:23:04;;;;;;;;;;;3.60;99.90;;;;;;5067672;28;19917;-59
2023/01/29 14:25:31;;;;;;;;;;;3.60;99.90;;;;;;5070269;28;19915;-60
2023/01/29 14:27:58;;;;;;;;;;;3.60;99.90;;;;;;5070290;28;19909;-60
2023/01/29 14:30:25;;;;;;;;;;;3.60;99.90;;;;;;5066214;28;20629;-58
2023/01/29 14:32:50;;;;;;;;;;;3.70;99.90;;;;;;5072204;28;19913;-59
2023/01/29 14:35:16;;;;;;;;;;;3.60;99.90;;;;;;5073557;28;19919;-60
2023/01/29 14:37:44;;;;;;;;;;;3.50;99.90;;;;;;5070296;28;19917;-59
2023/01/29 14:40:09;;;;;;;;;;;3.60;99.90;;;;;;5077586;28;19908;-59
2023/01/29 14:42:36;;;;;;;;;;;3.60;99.90;;;;;;5065695;28;19943;-59
2023/01/29 14:45:20;;;;;;;;;;;3.60;99.90;;;;;;5065218;28;19923;-60
2023/01/29 14:47:46;;;;;;;;;;;3.50;99.90;;;;;;5069806;28;19916;-61
2023/01/29 14:50:17;;;;;;;;;;;3.50;99.90;;;;;;5069864;28;19920;-59
2023/01/29 14:52:43;;;;;;;;;;;3.50;99.90;;;;;;5068269;28;19920;-61
2023/01/29 14:55:22;;;;;;;;;;;3.60;99.90;;;;;;5073714;28;19908;-60
2023/01/29 14:57:48;;;;;;;;;;;3.50;99.90;;;;;;5074065;28;19931;-65
2023/01/29 15:00:17;;;;;;;;;;;3.50;99.90;;;;;;5073828;28;20370;-61
2023/01/29 15:02:43;;;;;;;;;;;3.60;99.90;;;;;;5070259;28;19912;-61
2023/01/29 15:05:15;;;;;;;;;;;3.50;99.90;;;;;;5079709;28;19920;-58
2023/01/29 15:07:47;;;;;;;;;;;3.60;99.90;;;;;;5076206;28;19912;-59
2023/01/29 15:10:36;;;;;;;;;;;3.60;99.90;;;;;;5080313;28;19912;-60
2023/01/29 15:13:14;;;;;;;;;;;3.60;99.90;;;;;;5071517;28;19913;-60
2023/01/29 15:15:42;;;;;;;;;;;3.70;99.90;;;;;;5071013;28;19955;-61
2023/01/29 15:18:07;;;;;;;;;;;3.70;99.90;;;;;;5070685;28;20408;-61
2023/01/29 15:20:37;;;;;;;;;;;3.60;99.90;;;;;;5069339;28;19917;-58
2023/01/29 15:23:20;;;;;;;;;;;3.60;99.90;;;;;;5067232;28;19917;-65
2023/01/29 15:25:47;;;;;;;;;;;3.50;99.90;;;;;;5072086;28;19919;-60
2023/01/29 15:28:13;;;;;;;;;;;3.60;99.90;;;;;;5074289;28;19934;-60
2023/01/29 15:30:41;;;;;;;;;;;3.50;99.90;;;;;;5050844;28;20358;-60
2023/01/29 15:33:09;;;;;;;;;;;3.50;99.90;;;;;;5065430;28;19913;-60
2023/01/29 15:35:34;;;;;;;;;;;3.50;99.90;;;;;;5067038;28;19917;-60
2023/01/29 15:38:01;;;;;;;;;;;3.50;99.90;;;;;;5068565;28;19912;-60
2023/01/29 15:40:27;;;;;;;;;;;3.50;99.90;;;;;;5069265;28;19923;-60
2023/01/29 15:42:53;;;;;;;;;;;3.50;99.90;;;;;;5063948;28;19912;-60
2023/01/29 15:45:26;;;;;;;;;;;3.50;99.90;;;;;;5049069;28;19927;-60
2023/01/29 15:47:53;;;;;;;;;;;3.40;99.90;;;;;;5071682;28;19920;-59
2023/01/29 15:50:19;;;;;;;;;;;3.40;99.90;;;;;;5072305;28;19912;-60
2023/01/29 15:52:47;;;;;;;;;;;3.40;99.90;;;;;;5066326;28;19958;-58
2023/01/29 15:55:13;;;;;;;;;;;3.40;99.90;;;;;;5077033;28;19951;-60
2023/01/29 15:57:40;;;;;;;;;;;3.40;99.90;;;;;;5071435;28;20401;-58
2023/01/29 16:00:07;;;;;;;;;;;3.30;99.90;;;;;;5076116;28;19916;-60
2023/01/29 16:02:37;;;;;;;;;;;3.40;99.90;;;;;;5046836;28;19917;-60
2023/01/29 16:05:09;;;;;;;;;;;3.40;99.90;;;;;;5069288;28;19920;-61
2023/01/29 16:07:35;;;;;;;;;;;3.40;99.90;;;;;;5064550;28;19920;-58
2023/01/29 16:10:01;;;;;;;;;;;3.40;99.90;;;;;;5066631;28;20002;-60
2023/01/29 16:12:27;;;;;;;;;;;3.40;99.90;;;;;;5066925;28;19913;-60
2023/01/29 16:14:54;;;;;;;;;;;3.30;99.90;;;;;;5070410;28;22566;-58
2023/01/29 16:17:21;;;;;;;;;;;3.40;99.90;;;;;;5071060;28;20015;-61
2023/01/29 16:19:59;;;;;;;;;;;3.40;99.90;;;;;;5070176;28;20711;-65